sensor_id;sensor_type;location;lat;lon;timestamp;pressure;altitude;pressure_sealevel;temperature;humidity
50702;BME280;36670;50.094;8.496;2023-05-09T00:01:57;100625.03;;;18.43;65.03
50702;BME280;36670;50.094;8.496;2023-05-09T00:04:23;100619.25;;;18.59;64.68
50702;BME280;36670;50.094;8.496;2023-05-09T00:06:49;100629.25;;;18.41;64.86
50702;BME280;36670;50.094;8.496;2023-05-09T00:09:14;100623.38;;;18.42;64.84
50702;BME280;36670;50.094;8.496;2023-05-09T00:11:39;100613.50;;;18.26;65.30
50702;BME280;36670;50.094;8.496;2023-05-09T00:14:04;100611.13;;;18.14;66.08
50702;BME280;36670;50.094;8.496;2023-05-09T00:16:30;100607.63;;;18.28;65.65
50702;BME280;36670;50.094;8.496;2023-05-09T00:18:56;100607.53;;;18.08;66.66
50702;BME280;36670;50.094;8.496;2023-05-09T00:21:22;100611.75;;;17.77;66.86
50702;BME280;36670;50.094;8.496;2023-05-09T00:23:47;100614.78;;;17.80;67.51
50702;BME280;36670;50.094;8.496;2023-05-09T00:26:12;100603.56;;;17.85;67.55
50702;BME280;36670;50.094;8.496;2023-05-09T00:28:38;100601.38;;;18.36;66.53
50702;BME280;36670;50.094;8.496;2023-05-09T00:31:03;100599.16;;;18.33;65.51
50702;BME280;36670;50.094;8.496;2023-05-09T00:33:28;100595.84;;;18.31;65.75
50702;BME280;36670;50.094;8.496;2023-05-09T00:35:53;100600.28;;;18.56;65.14
50702;BME280;36670;50.094;8.496;2023-05-09T00:38:19;100595.16;;;18.87;64.78
50702;BME280;36670;50.094;8.496;2023-05-09T00:40:44;100593.50;;;18.81;64.95
50702;BME280;36670;50.094;8.496;2023-05-09T00:43:09;100584.06;;;18.77;64.83
50702;BME280;36670;50.094;8.496;2023-05-09T00:45:34;100592.91;;;18.84;64.95
50702;BME280;36670;50.094;8.496;2023-05-09T00:48:00;100593.44;;;18.86;64.80
50702;BME280;36670;50.094;8.496;2023-05-09T00:50:25;100592.59;;;18.67;65.05
50702;BME280;36670;50.094;8.496;2023-05-09T00:52:50;100587.13;;;18.56;65.32
50702;BME280;36670;50.094;8.496;2023-05-09T00:55:16;100583.50;;;18.56;65.27
50702;BME280;36670;50.094;8.496;2023-05-09T00:57:41;100580.97;;;18.35;65.69
50702;BME280;36670;50.094;8.496;2023-05-09T01:00:07;100583.66;;;18.21;66.16
50702;BME280;36670;50.094;8.496;2023-05-09T01:02:36;100581.44;;;18.42;65.77
50702;BME280;36670;50.094;8.496;2023-05-09T01:05:02;100571.09;;;18.43;66.24
50702;BME280;36670;50.094;8.496;2023-05-09T01:07:45;100565.03;;;18.36;65.97
50702;BME280;36670;50.094;8.496;2023-05-09T01:10:22;100566.13;;;18.59;65.52
50702;BME280;36670;50.094;8.496;2023-05-09T01:12:55;100568.34;;;18.38;65.98
50702;BME280;36670;50.094;8.496;2023-05-09T01:15:28;100567.69;;;18.46;66.18
50702;BME280;36670;50.094;8.496;2023-05-09T01:18:00;100563.41;;;18.54;65.54
50702;BME280;36670;50.094;8.496;2023-05-09T01:20:31;100562.00;;;18.32;66.23
50702;BME280;36670;50.094;8.496;2023-05-09T01:28:12;100556.63;;;18.79;65.30
50702;BME280;36670;50.094;8.496;2023-05-09T01:30:38;100550.00;;;18.94;65.17
50702;BME280;36670;50.094;8.496;2023-05-09T01:33:05;100548.63;;;18.72;65.06
50702;BME280;36670;50.094;8.496;2023-05-09T01:35:31;100543.31;;;18.52;65.69
50702;BME280;36670;50.094;8.496;2023-05-09T01:37:57;100537.72;;;18.52;65.99
50702;BME280;36670;50.094;8.496;2023-05-09T01:40:23;100540.72;;;18.36;66.32
50702;BME280;36670;50.094;8.496;2023-05-09T01:42:50;100539.19;;;18.25;66.82
50702;BME280;36670;50.094;8.496;2023-05-09T01:45:16;100534.84;;;18.57;65.69
50702;BME280;36670;50.094;8.496;2023-05-09T01:47:42;100536.59;;;18.53;65.68
50702;BME280;36670;50.094;8.496;2023-05-09T01:50:08;100537.44;;;18.05;66.68
50702;BME280;36670;50.094;8.496;2023-05-09T01:52:34;100534.47;;;17.96;67.24
50702;BME280;36670;50.094;8.496;2023-05-09T01:55:01;100535.09;;;17.88;67.63
50702;BME280;36670;50.094;8.496;2023-05-09T01:57:26;100539.56;;;17.89;67.65
50702;BME280;36670;50.094;8.496;2023-05-09T01:59:53;100534.53;;;17.91;68.00
50702;BME280;36670;50.094;8.496;2023-05-09T02:02:19;100531.59;;;18.50;66.40
50702;BME280;36670;50.094;8.496;2023-05-09T02:04:44;100529.06;;;18.48;66.10
50702;BME280;36670;50.094;8.496;2023-05-09T02:07:11;100528.94;;;18.58;65.79
50702;BME280;36670;50.094;8.496;2023-05-09T02:09:36;100520.72;;;18.67;65.50
50702;BME280;36670;50.094;8.496;2023-05-09T02:12:02;100526.38;;;18.62;65.89
50702;BME280;36670;50.094;8.496;2023-05-09T02:14:28;100529.94;;;18.68;65.21
50702;BME280;36670;50.094;8.496;2023-05-09T02:16:53;100524.91;;;18.89;65.13
50702;BME280;36670;50.094;8.496;2023-05-09T02:19:19;100529.88;;;18.54;65.42
50702;BME280;36670;50.094;8.496;2023-05-09T02:21:44;100534.00;;;18.37;66.12
50702;BME280;36670;50.094;8.496;2023-05-09T02:24:09;100533.53;;;18.49;66.35
50702;BME280;36670;50.094;8.496;2023-05-09T02:26:34;100525.56;;;18.81;65.61
50702;BME280;36670;50.094;8.496;2023-05-09T02:29:00;100524.28;;;19.11;64.87
50702;BME280;36670;50.094;8.496;2023-05-09T02:31:26;100521.75;;;18.96;65.11
50702;BME280;36670;50.094;8.496;2023-05-09T02:33:53;100506.38;;;18.93;64.19
50702;BME280;36670;50.094;8.496;2023-05-09T02:36:18;100507.50;;;18.54;65.32
50702;BME280;36670;50.094;8.496;2023-05-09T02:38:44;100508.63;;;18.53;65.67
50702;BME280;36670;50.094;8.496;2023-05-09T02:41:13;100499.72;;;18.70;65.23
50702;BME280;36670;50.094;8.496;2023-05-09T02:43:38;100493.59;;;18.49;65.80
50702;BME280;36670;50.094;8.496;2023-05-09T02:46:03;100492.56;;;18.20;66.05
50702;BME280;36670;50.094;8.496;2023-05-09T02:48:29;100501.53;;;18.17;66.56
50702;BME280;36670;50.094;8.496;2023-05-09T02:50:54;100499.50;;;18.04;66.55
50702;BME280;36670;50.094;8.496;2023-05-09T02:53:19;100500.16;;;18.15;66.98
50702;BME280;36670;50.094;8.496;2023-05-09T02:55:44;100505.47;;;18.59;65.71
50702;BME280;36670;50.094;8.496;2023-05-09T02:58:10;100495.78;;;18.90;64.65
50702;BME280;36670;50.094;8.496;2023-05-09T03:00:35;100502.53;;;18.89;64.32
50702;BME280;36670;50.094;8.496;2023-05-09T03:03:00;100499.34;;;18.76;64.74
50702;BME280;36670;50.094;8.496;2023-05-09T03:05:25;100505.97;;;18.81;64.99
50702;BME280;36670;50.094;8.496;2023-05-09T03:07:51;100498.56;;;18.90;64.54
50702;BME280;36670;50.094;8.496;2023-05-09T03:10:16;100498.66;;;18.85;65.10
50702;BME280;36670;50.094;8.496;2023-05-09T03:12:41;100496.91;;;18.51;65.73
50702;BME280;36670;50.094;8.496;2023-05-09T03:15:07;100490.91;;;18.19;65.95
50702;BME280;36670;50.094;8.496;2023-05-09T03:17:33;100482.44;;;18.24;66.33
50702;BME280;36670;50.094;8.496;2023-05-09T03:19:58;100492.81;;;18.43;66.01
50702;BME280;36670;50.094;8.496;2023-05-09T03:22:23;100484.78;;;18.17;66.53
50702;BME280;36670;50.094;8.496;2023-05-09T03:24:48;100483.13;;;18.16;66.78
50702;BME280;36670;50.094;8.496;2023-05-09T03:27:13;100477.56;;;17.87;67.39
50702;BME280;36670;50.094;8.496;2023-05-09T03:29:38;100473.13;;;17.86;67.99
50702;BME280;36670;50.094;8.496;2023-05-09T03:32:04;100470.19;;;18.01;67.76
50702;BME280;36670;50.094;8.496;2023-05-09T03:34:29;100475.56;;;17.68;68.01
50702;BME280;36670;50.094;8.496;2023-05-09T03:36:54;100471.03;;;18.21;67.02
50702;BME280;36670;50.094;8.496;2023-05-09T03:39:20;100460.38;;;18.04;67.16
50702;BME280;36670;50.094;8.496;2023-05-09T03:41:45;100468.75;;;18.04;67.03
50702;BME280;36670;50.094;8.496;2023-05-09T03:44:10;100468.06;;;17.88;67.41
50702;BME280;36670;50.094;8.496;2023-05-09T03:46:35;100471.97;;;17.87;67.51
50702;BME280;36670;50.094;8.496;2023-05-09T03:49:00;100467.34;;;18.25;66.47
50702;BME280;36670;50.094;8.496;2023-05-09T03:51:25;100462.19;;;18.33;66.13
50702;BME280;36670;50.094;8.496;2023-05-09T03:53:51;100465.56;;;17.86;67.61
50702;BME280;36670;50.094;8.496;2023-05-09T03:56:16;100465.81;;;17.90;67.88
50702;BME280;36670;50.094;8.496;2023-05-09T03:58:41;100464.22;;;18.08;66.73
50702;BME280;36670;50.094;8.496;2023-05-09T04:01:06;100465.09;;;17.79;67.82
50702;BME280;36670;50.094;8.496;2023-05-09T04:03:31;100464.44;;;17.63;68.45
50702;BME280;36670;50.094;8.496;2023-05-09T04:05:57;100463.75;;;18.01;67.41
50702;BME280;36670;50.094;8.496;2023-05-09T04:08:22;100465.59;;;17.62;68.45
50702;BME280;36670;50.094;8.496;2023-05-09T04:10:48;100471.31;;;18.00;67.48
50702;BME280;36670;50.094;8.496;2023-05-09T04:13:13;100470.84;;;17.93;67.72
50702;BME280;36670;50.094;8.496;2023-05-09T04:15:38;100461.91;;;17.91;67.81
50702;BME280;36670;50.094;8.496;2023-05-09T04:18:03;100459.41;;;18.14;67.48
50702;BME280;36670;50.094;8.496;2023-05-09T04:20:29;100460.31;;;18.28;66.72
50702;BME280;36670;50.094;8.496;2023-05-09T04:22:55;100461.19;;;18.04;67.17
50702;BME280;36670;50.094;8.496;2023-05-09T04:25:20;100466.03;;;17.99;67.66
50702;BME280;36670;50.094;8.496;2023-05-09T04:27:45;100468.31;;;17.67;68.20
50702;BME280;36670;50.094;8.496;2023-05-09T04:30:10;100461.06;;;17.90;68.12
50702;BME280;36670;50.094;8.496;2023-05-09T04:32:36;100466.56;;;17.71;68.42
50702;BME280;36670;50.094;8.496;2023-05-09T04:35:01;100468.56;;;17.95;67.86
50702;BME280;36670;50.094;8.496;2023-05-09T04:37:27;100470.22;;;17.96;68.54
50702;BME280;36670;50.094;8.496;2023-05-09T04:39:53;100469.75;;;17.89;68.01
50702;BME280;36670;50.094;8.496;2023-05-09T04:42:18;100455.22;;;17.87;68.48
50702;BME280;36670;50.094;8.496;2023-05-09T04:44:43;100458.56;;;18.13;67.51
50702;BME280;36670;50.094;8.496;2023-05-09T04:47:08;100464.09;;;18.18;67.11
50702;BME280;36670;50.094;8.496;2023-05-09T04:49:33;100456.69;;;17.84;67.86
50702;BME280;36670;50.094;8.496;2023-05-09T04:51:58;100450.13;;;17.70;68.66
50702;BME280;36670;50.094;8.496;2023-05-09T04:54:24;100445.41;;;17.89;68.17
50702;BME280;36670;50.094;8.496;2023-05-09T04:56:50;100455.78;;;17.89;67.98
50702;BME280;36670;50.094;8.496;2023-05-09T04:59:16;100451.03;;;18.14;67.77
50702;BME280;36670;50.094;8.496;2023-05-09T05:01:41;100445.22;;;18.29;67.34
50702;BME280;36670;50.094;8.496;2023-05-09T05:04:06;100449.19;;;18.04;68.13
50702;BME280;36670;50.094;8.496;2023-05-09T05:06:31;100441.13;;;18.21;67.41
50702;BME280;36670;50.094;8.496;2023-05-09T05:08:56;100430.59;;;18.70;66.95
50702;BME280;36670;50.094;8.496;2023-05-09T05:11:22;100425.88;;;18.71;66.14
50702;BME280;36670;50.094;8.496;2023-05-09T05:13:47;100428.47;;;18.81;65.67
50702;BME280;36670;50.094;8.496;2023-05-09T05:16:12;100421.44;;;18.32;67.11
50702;BME280;36670;50.094;8.496;2023-05-09T05:18:37;100421.56;;;18.59;66.44
50702;BME280;36670;50.094;8.496;2023-05-09T05:21:02;100426.63;;;18.57;66.56
50702;BME280;36670;50.094;8.496;2023-05-09T05:23:27;100430.31;;;19.24;65.61
50702;BME280;36670;50.094;8.496;2023-05-09T05:25:53;100425.28;;;19.95;64.82
50702;BME280;36670;50.094;8.496;2023-05-09T05:28:18;100407.28;;;20.10;64.11
50702;BME280;36670;50.094;8.496;2023-05-09T05:30:43;100419.44;;;20.20;62.72
50702;BME280;36670;50.094;8.496;2023-05-09T05:33:08;100418.00;;;20.45;61.69
50702;BME280;36670;50.094;8.496;2023-05-09T05:35:33;100417.28;;;20.76;60.90
50702;BME280;36670;50.094;8.496;2023-05-09T05:37:59;100412.06;;;20.83;60.49
50702;BME280;36670;50.094;8.496;2023-05-09T05:40:24;100406.78;;;20.82;60.50
50702;BME280;36670;50.094;8.496;2023-05-09T05:42:50;100409.59;;;21.76;60.55
50702;BME280;36670;50.094;8.496;2023-05-09T05:45:15;100396.91;;;23.27;56.55
50702;BME280;36670;50.094;8.496;2023-05-09T05:47:40;100398.00;;;24.33;55.15
50702;BME280;36670;50.094;8.496;2023-05-09T05:50:06;100390.78;;;25.45;53.74
50702;BME280;36670;50.094;8.496;2023-05-09T05:52:32;100390.53;;;26.24;51.25
50702;BME280;36670;50.094;8.496;2023-05-09T05:54:57;100396.94;;;26.09;49.89
50702;BME280;36670;50.094;8.496;2023-05-09T05:57:23;100397.53;;;24.74;49.68
50702;BME280;36670;50.094;8.496;2023-05-09T05:59:48;100399.25;;;23.64;52.89
50702;BME280;36670;50.094;8.496;2023-05-09T06:02:14;100397.41;;;24.70;51.20
50702;BME280;36670;50.094;8.496;2023-05-09T06:04:40;100395.03;;;24.93;51.66
50702;BME280;36670;50.094;8.496;2023-05-09T06:07:05;100380.41;;;24.91;50.38
50702;BME280;36670;50.094;8.496;2023-05-09T06:09:30;100388.88;;;24.79;50.87
50702;BME280;36670;50.094;8.496;2023-05-09T06:11:55;100392.28;;;24.00;49.99
50702;BME280;36670;50.094;8.496;2023-05-09T06:14:20;100390.97;;;23.59;51.84
50702;BME280;36670;50.094;8.496;2023-05-09T06:16:46;100389.22;;;23.75;51.81
50702;BME280;36670;50.094;8.496;2023-05-09T06:19:11;100385.88;;;23.82;51.32
50702;BME280;36670;50.094;8.496;2023-05-09T06:21:36;100377.53;;;23.17;52.17
50702;BME280;36670;50.094;8.496;2023-05-09T06:24:01;100371.31;;;22.94;52.93
50702;BME280;36670;50.094;8.496;2023-05-09T06:26:27;100375.78;;;22.68;53.48
50702;BME280;36670;50.094;8.496;2023-05-09T06:28:52;100371.16;;;22.64;53.76
50702;BME280;36670;50.094;8.496;2023-05-09T06:31:18;100368.16;;;22.78;54.37
50702;BME280;36670;50.094;8.496;2023-05-09T06:33:43;100366.41;;;22.47;55.23
50702;BME280;36670;50.094;8.496;2023-05-09T06:36:08;100370.34;;;22.28;55.17
50702;BME280;36670;50.094;8.496;2023-05-09T06:38:33;100369.31;;;22.15;55.81
50702;BME280;36670;50.094;8.496;2023-05-09T06:40:59;100355.63;;;22.49;54.58
50702;BME280;36670;50.094;8.496;2023-05-09T06:43:24;100356.09;;;22.25;55.64
50702;BME280;36670;50.094;8.496;2023-05-09T06:45:50;100353.81;;;22.27;55.44
50702;BME280;36670;50.094;8.496;2023-05-09T06:48:15;100351.28;;;22.25;55.33
50702;BME280;36670;50.094;8.496;2023-05-09T06:50:40;100363.00;;;21.83;55.70
50702;BME280;36670;50.094;8.496;2023-05-09T06:53:05;100358.75;;;22.04;54.92
50702;BME280;36670;50.094;8.496;2023-05-09T06:55:31;100351.81;;;22.27;55.54
50702;BME280;36670;50.094;8.496;2023-05-09T06:57:56;100352.66;;;22.45;55.45
50702;BME280;36670;50.094;8.496;2023-05-09T07:00:21;100355.75;;;22.26;55.61
50702;BME280;36670;50.094;8.496;2023-05-09T07:02:46;100357.06;;;22.11;55.60
50702;BME280;36670;50.094;8.496;2023-05-09T07:05:11;100349.81;;;22.10;55.48
50702;BME280;36670;50.094;8.496;2023-05-09T07:07:37;100344.38;;;22.23;55.83
50702;BME280;36670;50.094;8.496;2023-05-09T07:10:02;100341.91;;;22.39;55.65
50702;BME280;36670;50.094;8.496;2023-05-09T07:12:30;100337.28;;;22.43;55.33
50702;BME280;36670;50.094;8.496;2023-05-09T07:14:56;100319.88;;;22.32;54.81
50702;BME280;36670;50.094;8.496;2023-05-09T07:17:21;100319.88;;;22.14;55.69
50702;BME280;36670;50.094;8.496;2023-05-09T07:19:46;100321.53;;;22.42;55.74
50702;BME280;36670;50.094;8.496;2023-05-09T07:22:12;100319.13;;;22.88;55.07
50702;BME280;36670;50.094;8.496;2023-05-09T07:24:37;100324.88;;;23.09;54.05
50702;BME280;36670;50.094;8.496;2023-05-09T07:27:02;100326.84;;;23.17;53.86
50702;BME280;36670;50.094;8.496;2023-05-09T07:29:27;100321.00;;;23.31;53.11
50702;BME280;36670;50.094;8.496;2023-05-09T07:31:53;100320.25;;;23.04;53.06
50702;BME280;36670;50.094;8.496;2023-05-09T07:34:18;100327.09;;;22.77;54.63
50702;BME280;36670;50.094;8.496;2023-05-09T07:36:43;100313.28;;;23.19;52.63
50702;BME280;36670;50.094;8.496;2023-05-09T07:39:09;100309.81;;;23.13;53.60
50702;BME280;36670;50.094;8.496;2023-05-09T07:41:34;100304.22;;;22.96;53.77
50702;BME280;36670;50.094;8.496;2023-05-09T07:43:59;100295.59;;;23.01;54.08
50702;BME280;36670;50.094;8.496;2023-05-09T07:46:24;100284.53;;;22.87;53.62
50702;BME280;36670;50.094;8.496;2023-05-09T07:48:50;100297.47;;;23.27;53.74
50702;BME280;36670;50.094;8.496;2023-05-09T07:51:15;100291.91;;;23.48;53.43
50702;BME280;36670;50.094;8.496;2023-05-09T07:53:40;100291.75;;;23.06;53.16
50702;BME280;36670;50.094;8.496;2023-05-09T07:56:05;100290.38;;;22.73;54.27
50702;BME280;36670;50.094;8.496;2023-05-09T07:58:30;100286.31;;;22.44;55.24
50702;BME280;36670;50.094;8.496;2023-05-09T08:00:56;100288.47;;;22.39;54.78
50702;BME280;36670;50.094;8.496;2023-05-09T08:03:21;100285.31;;;22.05;55.93
50702;BME280;36670;50.094;8.496;2023-05-09T08:05:46;100282.81;;;21.86;56.53
50702;BME280;36670;50.094;8.496;2023-05-09T08:08:11;100277.69;;;22.32;56.20
50702;BME280;36670;50.094;8.496;2023-05-09T08:10:36;100272.53;;;22.52;55.46
50702;BME280;36670;50.094;8.496;2023-05-09T08:13:01;100279.84;;;22.35;55.71
50702;BME280;36670;50.094;8.496;2023-05-09T08:15:27;100280.03;;;21.95;56.69
50702;BME280;36670;50.094;8.496;2023-05-09T08:17:52;100267.94;;;22.03;56.76
50702;BME280;36670;50.094;8.496;2023-05-09T08:20:17;100267.94;;;21.94;57.00
50702;BME280;36670;50.094;8.496;2023-05-09T08:22:42;100272.06;;;21.62;57.59
50702;BME280;36670;50.094;8.496;2023-05-09T08:25:08;100262.06;;;21.47;58.35
50702;BME280;36670;50.094;8.496;2023-05-09T08:27:33;100257.53;;;21.86;57.69
50702;BME280;36670;50.094;8.496;2023-05-09T08:29:58;100254.19;;;21.58;57.94
50702;BME280;36670;50.094;8.496;2023-05-09T08:32:23;100248.09;;;21.82;57.99
50702;BME280;36670;50.094;8.496;2023-05-09T08:34:49;100245.47;;;21.86;57.69
50702;BME280;36670;50.094;8.496;2023-05-09T08:37:14;100239.66;;;21.73;57.39
50702;BME280;36670;50.094;8.496;2023-05-09T08:39:39;100237.53;;;21.70;57.92
50702;BME280;36670;50.094;8.496;2023-05-09T08:42:04;100235.88;;;21.60;57.68
50702;BME280;36670;50.094;8.496;2023-05-09T08:44:30;100245.03;;;21.26;58.60
50702;BME280;36670;50.094;8.496;2023-05-09T08:46:59;100231.09;;;21.78;58.32
50702;BME280;36670;50.094;8.496;2023-05-09T08:49:25;100236.69;;;22.05;58.13
50702;BME280;36670;50.094;8.496;2023-05-09T08:51:50;100229.38;;;22.21;57.43
50702;BME280;36670;50.094;8.496;2023-05-09T08:54:15;100224.50;;;22.65;57.28
50702;BME280;36670;50.094;8.496;2023-05-09T08:56:41;100226.16;;;22.66;56.77
50702;BME280;36670;50.094;8.496;2023-05-09T08:59:06;100217.81;;;22.88;55.83
50702;BME280;36670;50.094;8.496;2023-05-09T09:01:35;100226.09;;;23.23;54.73
50702;BME280;36670;50.094;8.496;2023-05-09T09:04:00;100222.22;;;23.36;55.25
50702;BME280;36670;50.094;8.496;2023-05-09T09:06:27;100223.19;;;23.40;53.89
50702;BME280;36670;50.094;8.496;2023-05-09T09:08:53;100220.84;;;23.42;54.61
50702;BME280;36670;50.094;8.496;2023-05-09T09:11:20;100213.84;;;22.89;54.89
50702;BME280;36670;50.094;8.496;2023-05-09T09:13:46;100215.03;;;22.79;54.63
50702;BME280;36670;50.094;8.496;2023-05-09T09:16:16;100213.19;;;22.83;55.66
50702;BME280;36670;50.094;8.496;2023-05-09T09:18:43;100216.09;;;22.57;55.52
50702;BME280;36670;50.094;8.496;2023-05-09T09:21:08;100211.69;;;22.21;56.03
50702;BME280;36670;50.094;8.496;2023-05-09T09:23:34;100212.88;;;22.02;56.79
50702;BME280;36670;50.094;8.496;2023-05-09T09:26:01;100211.25;;;21.92;56.68
50702;BME280;36670;50.094;8.496;2023-05-09T09:28:28;100202.44;;;22.11;57.26
50702;BME280;36670;50.094;8.496;2023-05-09T09:30:54;100191.00;;;22.25;56.92
50702;BME280;36670;50.094;8.496;2023-05-09T09:33:23;100194.34;;;22.19;56.27
50702;BME280;36670;50.094;8.496;2023-05-09T09:35:49;100193.66;;;22.30;57.20
50702;BME280;36670;50.094;8.496;2023-05-09T09:38:15;100187.38;;;22.33;56.77
50702;BME280;36670;50.094;8.496;2023-05-09T09:40:48;100186.94;;;22.70;56.17
50702;BME280;36670;50.094;8.496;2023-05-09T09:43:13;100183.03;;;22.83;55.62
50702;BME280;36670;50.094;8.496;2023-05-09T09:45:38;100182.31;;;22.65;55.30
50702;BME280;36670;50.094;8.496;2023-05-09T09:48:05;100180.34;;;22.66;55.78
50702;BME280;36670;50.094;8.496;2023-05-09T09:50:31;100170.63;;;22.84;55.76
50702;BME280;36670;50.094;8.496;2023-05-09T09:52:56;100167.13;;;22.88;55.07
50702;BME280;36670;50.094;8.496;2023-05-09T09:55:22;100166.31;;;22.87;55.97
50702;BME280;36670;50.094;8.496;2023-05-09T09:57:47;100168.47;;;23.11;54.92
50702;BME280;36670;50.094;8.496;2023-05-09T10:00:14;100155.59;;;22.80;55.40
50702;BME280;36670;50.094;8.496;2023-05-09T10:02:46;100157.63;;;23.01;54.81
50702;BME280;36670;50.094;8.496;2023-05-09T10:05:17;100159.94;;;22.69;55.88
50702;BME280;36670;50.094;8.496;2023-05-09T10:07:42;100147.38;;;23.26;54.36
50702;BME280;36670;50.094;8.496;2023-05-09T10:10:08;100151.81;;;23.06;54.46
50702;BME280;36670;50.094;8.496;2023-05-09T10:12:35;100139.50;;;23.11;54.96
50702;BME280;36670;50.094;8.496;2023-05-09T10:15:03;100134.47;;;22.95;54.42
50702;BME280;36670;50.094;8.496;2023-05-09T10:17:31;100132.66;;;22.91;55.08
50702;BME280;36670;50.094;8.496;2023-05-09T10:19:57;100123.69;;;23.27;53.98
50702;BME280;36670;50.094;8.496;2023-05-09T10:22:26;100123.47;;;23.54;53.56
50702;BME280;36670;50.094;8.496;2023-05-09T10:25:03;100124.66;;;23.52;53.65
50702;BME280;36670;50.094;8.496;2023-05-09T10:27:31;100109.22;;;23.71;53.47
50702;BME280;36670;50.094;8.496;2023-05-09T10:30:01;100111.47;;;23.78;53.22
50702;BME280;36670;50.094;8.496;2023-05-09T10:35:15;100102.47;;;23.84;52.34
50702;BME280;36670;50.094;8.496;2023-05-09T10:37:40;100099.97;;;23.49;52.92
50702;BME280;36670;50.094;8.496;2023-05-09T10:40:06;100098.13;;;24.20;52.15
50702;BME280;36670;50.094;8.496;2023-05-09T10:42:32;100090.78;;;24.07;53.15
50702;BME280;36670;50.094;8.496;2023-05-09T10:44:57;100088.94;;;24.24;52.17
50702;BME280;36670;50.094;8.496;2023-05-09T10:47:22;100087.66;;;23.54;53.33
50702;BME280;36670;50.094;8.496;2023-05-09T10:49:50;100082.91;;;23.67;53.89
50702;BME280;36670;50.094;8.496;2023-05-09T10:52:16;100074.38;;;23.55;53.52
50702;BME280;36670;50.094;8.496;2023-05-09T10:54:42;100074.06;;;23.90;53.56
50702;BME280;36670;50.094;8.496;2023-05-09T10:57:08;100072.16;;;23.27;53.85
50702;BME280;36670;50.094;8.496;2023-05-09T11:02:01;100059.53;;;24.00;53.29
50702;BME280;36670;50.094;8.496;2023-05-09T11:04:27;100059.66;;;24.28;52.77
50702;BME280;36670;50.094;8.496;2023-05-09T11:06:53;100047.09;;;24.38;52.12
50702;BME280;36670;50.094;8.496;2023-05-09T11:11:51;100041.81;;;24.24;52.63
50702;BME280;36670;50.094;8.496;2023-05-09T11:17:11;100043.81;;;24.48;51.98
50702;BME280;36670;50.094;8.496;2023-05-09T11:22:15;100037.81;;;24.50;52.08
50702;BME280;36670;50.094;8.496;2023-05-09T11:24:50;100042.03;;;24.44;52.27
50702;BME280;36670;50.094;8.496;2023-05-09T11:27:23;100025.75;;;23.79;53.06
50702;BME280;36670;50.094;8.496;2023-05-09T11:29:53;100017.97;;;23.30;55.57
50702;BME280;36670;50.094;8.496;2023-05-09T11:32:19;100017.00;;;23.26;55.01
50702;BME280;36670;50.094;8.496;2023-05-09T11:34:44;100013.56;;;23.41;54.85
50702;BME280;36670;50.094;8.496;2023-05-09T11:37:10;100020.94;;;23.46;55.46
50702;BME280;36670;50.094;8.496;2023-05-09T11:42:20;100016.47;;;23.45;55.90
50702;BME280;36670;50.094;8.496;2023-05-09T11:44:46;100017.22;;;23.21;55.77
50702;BME280;36670;50.094;8.496;2023-05-09T11:47:12;100014.03;;;23.01;56.80
50702;BME280;36670;50.094;8.496;2023-05-09T11:49:41;100015.00;;;23.05;57.13
50702;BME280;36670;50.094;8.496;2023-05-09T11:52:06;100010.19;;;22.84;58.24
50702;BME280;36670;50.094;8.496;2023-05-09T11:54:31;100008.25;;;22.55;59.04
50702;BME280;36670;50.094;8.496;2023-05-09T11:56:56;100003.66;;;22.50;59.59
50702;BME280;36670;50.094;8.496;2023-05-09T11:59:23;99993.09;;;22.68;59.23
50702;BME280;36670;50.094;8.496;2023-05-09T12:01:48;99994.00;;;23.02;59.37
50702;BME280;36670;50.094;8.496;2023-05-09T12:04:14;99983.06;;;23.22;58.14
50702;BME280;36670;50.094;8.496;2023-05-09T12:06:39;99987.94;;;23.34;57.63
50702;BME280;36670;50.094;8.496;2023-05-09T12:09:04;99982.22;;;23.43;58.35
50702;BME280;36670;50.094;8.496;2023-05-09T12:11:30;99977.84;;;22.91;59.74
50702;BME280;36670;50.094;8.496;2023-05-09T12:13:58;99966.91;;;23.10;59.56
50702;BME280;36670;50.094;8.496;2023-05-09T12:16:24;99969.69;;;23.19;60.28
50702;BME280;36670;50.094;8.496;2023-05-09T12:18:49;99961.56;;;23.51;59.37
50702;BME280;36670;50.094;8.496;2023-05-09T12:21:15;99956.38;;;24.24;57.88
50702;BME280;36670;50.094;8.496;2023-05-09T12:23:41;99957.09;;;24.20;56.73
50702;BME280;36670;50.094;8.496;2023-05-09T12:26:06;99948.34;;;23.76;57.61
50702;BME280;36670;50.094;8.496;2023-05-09T12:28:31;99945.44;;;24.10;57.28
50702;BME280;36670;50.094;8.496;2023-05-09T12:30:57;99941.28;;;23.82;57.04
50702;BME280;36670;50.094;8.496;2023-05-09T12:33:22;99941.22;;;22.78;58.49
50702;BME280;36670;50.094;8.496;2023-05-09T12:35:48;99927.53;;;22.89;57.68
50702;BME280;36670;50.094;8.496;2023-05-09T12:38:24;99928.56;;;22.84;58.69
50702;BME280;36670;50.094;8.496;2023-05-09T12:40:58;99918.69;;;22.99;57.74
50702;BME280;36670;50.094;8.496;2023-05-09T12:43:23;99917.47;;;22.46;58.82
50702;BME280;36670;50.094;8.496;2023-05-09T12:45:51;99911.16;;;22.70;58.69
50702;BME280;36670;50.094;8.496;2023-05-09T12:48:16;99916.72;;;22.58;58.95
50702;BME280;36670;50.094;8.496;2023-05-09T12:50:45;99918.22;;;22.25;60.37
50702;BME280;36670;50.094;8.496;2023-05-09T12:53:10;99900.00;;;22.10;59.59
50702;BME280;36670;50.094;8.496;2023-05-09T12:55:39;99901.44;;;22.16;60.37
50702;BME280;36670;50.094;8.496;2023-05-09T12:58:07;99895.22;;;21.72;60.84
50702;BME280;36670;50.094;8.496;2023-05-09T13:00:45;99887.69;;;21.94;60.85
50702;BME280;36670;50.094;8.496;2023-05-09T13:03:20;99883.50;;;22.00;61.08
50702;BME280;36670;50.094;8.496;2023-05-09T13:05:52;99882.19;;;21.97;60.07